sensor_id;sensor_type;location;lat;lon;timestamp;pressure;altitude;pressure_sealevel;temperature
64458;BMP280;58438;51.200;7.252;2023-10-19T00:04:04;95752.34;;;10.27
64458;BMP280;58438;51.200;7.252;2023-10-19T00:06:56;95763.22;;;10.27
64458;BMP280;58438;51.200;7.252;2023-10-19T00:09:46;95758.38;;;10.20
64458;BMP280;58438;51.200;7.252;2023-10-19T00:12:40;95752.94;;;10.20
64458;BMP280;58438;51.200;7.252;2023-10-19T00:15:31;95741.47;;;10.27
64458;BMP280;58438;51.200;7.252;2023-10-19T00:18:22;95740.75;;;10.27
64458;BMP280;58438;51.200;7.252;2023-10-19T00:21:12;95745.88;;;10.30
64458;BMP280;58438;51.200;7.252;2023-10-19T00:24:13;95743.56;;;10.34
64458;BMP280;58438;51.200;7.252;2023-10-19T00:27:04;95737.19;;;10.32
64458;BMP280;58438;51.200;7.252;2023-10-19T00:30:03;95745.03;;;10.35
64458;BMP280;58438;51.200;7.252;2023-10-19T00:32:54;95737.84;;;10.38
64458;BMP280;58438;51.200;7.252;2023-10-19T00:41:41;95744.44;;;10.42
64458;BMP280;58438;51.200;7.252;2023-10-19T00:44:33;95741.72;;;10.42
64458;BMP280;58438;51.200;7.252;2023-10-19T00:47:29;95749.06;;;10.47
64458;BMP280;58438;51.200;7.252;2023-10-19T00:50:27;95751.56;;;10.58
64458;BMP280;58438;51.200;7.252;2023-10-19T00:53:18;95744.59;;;10.63
64458;BMP280;58438;51.200;7.252;2023-10-19T00:56:08;95739.38;;;10.65
64458;BMP280;58438;51.200;7.252;2023-10-19T00:59:01;95748.91;;;10.71
64458;BMP280;58438;51.200;7.252;2023-10-19T01:02:00;95739.28;;;10.70
64458;BMP280;58438;51.200;7.252;2023-10-19T01:07:53;95720.44;;;10.72
64458;BMP280;58438;51.200;7.252;2023-10-19T01:10:44;95723.03;;;10.78
64458;BMP280;58438;51.200;7.252;2023-10-19T01:13:35;95718.56;;;10.80
64458;BMP280;58438;51.200;7.252;2023-10-19T01:19:15;95724.84;;;10.88
64458;BMP280;58438;51.200;7.252;2023-10-19T01:22:06;95719.41;;;10.88
64458;BMP280;58438;51.200;7.252;2023-10-19T01:24:57;95720.84;;;10.89
64458;BMP280;58438;51.200;7.252;2023-10-19T01:27:47;95723.06;;;10.91
64458;BMP280;58438;51.200;7.252;2023-10-19T01:30:42;95718.34;;;10.91
64458;BMP280;58438;51.200;7.252;2023-10-19T01:33:32;95724.72;;;10.94
64458;BMP280;58438;51.200;7.252;2023-10-19T01:36:22;95724.09;;;11.01
64458;BMP280;58438;51.200;7.252;2023-10-19T01:39:15;95716.97;;;10.98
64458;BMP280;58438;51.200;7.252;2023-10-19T01:44:59;95712.28;;;11.11
64458;BMP280;58438;51.200;7.252;2023-10-19T01:47:47;95706.19;;;11.18
64458;BMP280;58438;51.200;7.252;2023-10-19T01:53:29;95705.75;;;11.27
64458;BMP280;58438;51.200;7.252;2023-10-19T01:59:07;95708.69;;;11.29
64458;BMP280;58438;51.200;7.252;2023-10-19T02:01:58;95693.81;;;11.30
64458;BMP280;58438;51.200;7.252;2023-10-19T02:04:50;95692.94;;;11.35
64458;BMP280;58438;51.200;7.252;2023-10-19T02:07:40;95692.13;;;11.40
64458;BMP280;58438;51.200;7.252;2023-10-19T02:13:20;95679.50;;;11.50
64458;BMP280;58438;51.200;7.252;2023-10-19T02:16:09;95686.03;;;11.47
64458;BMP280;58438;51.200;7.252;2023-10-19T02:19:00;95682.03;;;11.48
64458;BMP280;58438;51.200;7.252;2023-10-19T02:24:39;95677.81;;;11.60
64458;BMP280;58438;51.200;7.252;2023-10-19T02:27:29;95669.97;;;11.56
64458;BMP280;58438;51.200;7.252;2023-10-19T02:33:07;95672.38;;;11.60
64458;BMP280;58438;51.200;7.252;2023-10-19T02:35:59;95674.03;;;11.63
64458;BMP280;58438;51.200;7.252;2023-10-19T02:38:48;95672.56;;;11.62
64458;BMP280;58438;51.200;7.252;2023-10-19T02:41:39;95679.66;;;11.65
64458;BMP280;58438;51.200;7.252;2023-10-19T02:47:19;95663.31;;;11.65
64458;BMP280;58438;51.200;7.252;2023-10-19T02:50:09;95664.25;;;11.67
64458;BMP280;58438;51.200;7.252;2023-10-19T02:53:02;95657.94;;;11.72
64458;BMP280;58438;51.200;7.252;2023-10-19T02:58:41;95659.34;;;11.86
64458;BMP280;58438;51.200;7.252;2023-10-19T03:01:30;95648.22;;;11.84
64458;BMP280;58438;51.200;7.252;2023-10-19T03:04:22;95660.06;;;11.87
64458;BMP280;58438;51.200;7.252;2023-10-19T03:07:14;95656.16;;;11.95
64458;BMP280;58438;51.200;7.252;2023-10-19T03:12:54;95645.47;;;11.97
64458;BMP280;58438;51.200;7.252;2023-10-19T03:15:45;95640.31;;;11.94
64458;BMP280;58438;51.200;7.252;2023-10-19T03:18:36;95645.47;;;11.97
64458;BMP280;58438;51.200;7.252;2023-10-19T03:21:26;95637.44;;;11.99
64458;BMP280;58438;51.200;7.252;2023-10-19T03:24:16;95634.63;;;12.05
64458;BMP280;58438;51.200;7.252;2023-10-19T03:30:13;95633.75;;;12.10
64458;BMP280;58438;51.200;7.252;2023-10-19T03:35:56;95618.28;;;12.12
64458;BMP280;58438;51.200;7.252;2023-10-19T03:38:47;95630.88;;;12.15
64458;BMP280;58438;51.200;7.252;2023-10-19T03:41:38;95616.66;;;12.09
64458;BMP280;58438;51.200;7.252;2023-10-19T03:44:29;95630.81;;;12.08
64458;BMP280;58438;51.200;7.252;2023-10-19T03:47:32;95629.19;;;12.05
64458;BMP280;58438;51.200;7.252;2023-10-19T03:50:23;95623.03;;;12.12
64458;BMP280;58438;51.200;7.252;2023-10-19T03:53:13;95621.56;;;12.11
64458;BMP280;58438;51.200;7.252;2023-10-19T03:56:05;95610.84;;;12.13
64458;BMP280;58438;51.200;7.252;2023-10-19T03:59:01;95616.50;;;12.15
64458;BMP280;58438;51.200;7.252;2023-10-19T04:01:51;95611.06;;;12.15
64458;BMP280;58438;51.200;7.252;2023-10-19T04:07:37;95602.13;;;12.14
64458;BMP280;58438;51.200;7.252;2023-10-19T04:10:27;95596.00;;;12.21
64458;BMP280;58438;51.200;7.252;2023-10-19T04:13:26;95595.75;;;12.12
64458;BMP280;58438;51.200;7.252;2023-10-19T04:16:16;95588.13;;;12.10
64458;BMP280;58438;51.200;7.252;2023-10-19T04:19:06;95589.25;;;12.15
64458;BMP280;58438;51.200;7.252;2023-10-19T04:21:56;95587.19;;;12.08
64458;BMP280;58438;51.200;7.252;2023-10-19T04:24:48;95592.69;;;12.15
64458;BMP280;58438;51.200;7.252;2023-10-19T04:27:37;95601.66;;;12.23
64458;BMP280;58438;51.200;7.252;2023-10-19T04:30:31;95590.69;;;12.16
64458;BMP280;58438;51.200;7.252;2023-10-19T04:33:26;95595.81;;;12.19
64458;BMP280;58438;51.200;7.252;2023-10-19T04:36:19;95585.84;;;12.22
64458;BMP280;58438;51.200;7.252;2023-10-19T04:39:10;95578.72;;;12.19
64458;BMP280;58438;51.200;7.252;2023-10-19T04:45:01;95588.50;;;12.14
64458;BMP280;58438;51.200;7.252;2023-10-19T04:47:52;95583.97;;;12.17
64458;BMP280;58438;51.200;7.252;2023-10-19T04:50:43;95588.56;;;12.22
64458;BMP280;58438;51.200;7.252;2023-10-19T04:53:36;95581.44;;;12.19
64458;BMP280;58438;51.200;7.252;2023-10-19T04:56:28;95583.63;;;12.20
64458;BMP280;58438;51.200;7.252;2023-10-19T04:59:15;95579.44;;;12.19
64458;BMP280;58438;51.200;7.252;2023-10-19T05:02:04;95580.19;;;12.20
64458;BMP280;58438;51.200;7.252;2023-10-19T05:04:51;95583.09;;;12.22
64458;BMP280;58438;51.200;7.252;2023-10-19T05:07:39;95583.09;;;12.22
64458;BMP280;58438;51.200;7.252;2023-10-19T05:10:27;95587.44;;;12.17
64458;BMP280;58438;51.200;7.252;2023-10-19T05:13:15;95591.66;;;12.26
64458;BMP280;58438;51.200;7.252;2023-10-19T05:16:02;95585.84;;;12.22
64458;BMP280;58438;51.200;7.252;2023-10-19T05:18:51;95584.38;;;12.21
64458;BMP280;58438;51.200;7.252;2023-10-19T05:21:38;95587.09;;;12.21
64458;BMP280;58438;51.200;7.252;2023-10-19T05:24:26;95588.75;;;12.24
64458;BMP280;58438;51.200;7.252;2023-10-19T05:27:14;95580.97;;;12.28
64458;BMP280;58438;51.200;7.252;2023-10-19T05:30:02;95587.88;;;12.29
64458;BMP280;58438;51.200;7.252;2023-10-19T05:35:39;95581.75;;;12.36
64458;BMP280;58438;51.200;7.252;2023-10-19T05:38:27;95581.16;;;12.30
64458;BMP280;58438;51.200;7.252;2023-10-19T05:41:14;95574.38;;;12.23
64458;BMP280;58438;51.200;7.252;2023-10-19T05:44:04;95579.94;;;12.38
64458;BMP280;58438;51.200;7.252;2023-10-19T05:46:52;95576.97;;;12.29
64458;BMP280;58438;51.200;7.252;2023-10-19T05:49:40;95580.22;;;12.27
64458;BMP280;58438;51.200;7.252;2023-10-19T05:52:30;95578.63;;;12.32
64458;BMP280;58438;51.200;7.252;2023-10-19T05:55:18;95576.28;;;12.36
64458;BMP280;58438;51.200;7.252;2023-10-19T05:58:07;95583.56;;;12.40
64458;BMP280;58438;51.200;7.252;2023-10-19T06:00:57;95584.66;;;12.38
64458;BMP280;58438;51.200;7.252;2023-10-19T06:03:45;95580.06;;;12.33
64458;BMP280;58438;51.200;7.252;2023-10-19T06:06:32;95591.19;;;12.35
64458;BMP280;58438;51.200;7.252;2023-10-19T06:09:21;95588.16;;;12.45
64458;BMP280;58438;51.200;7.252;2023-10-19T06:15:03;95597.94;;;12.41
64458;BMP280;58438;51.200;7.252;2023-10-19T06:17:50;95607.44;;;12.47
64458;BMP280;58438;51.200;7.252;2023-10-19T06:20:42;95595.81;;;12.47
64458;BMP280;58438;51.200;7.252;2023-10-19T06:26:19;95597.63;;;12.44
64458;BMP280;58438;51.200;7.252;2023-10-19T06:29:08;95603.44;;;12.48
64458;BMP280;58438;51.200;7.252;2023-10-19T06:34:42;95615.28;;;12.51
64458;BMP280;58438;51.200;7.252;2023-10-19T06:37:30;95617.09;;;12.48
64458;BMP280;58438;51.200;7.252;2023-10-19T06:40:17;95617.31;;;12.50
64458;BMP280;58438;51.200;7.252;2023-10-19T06:43:06;95619.28;;;12.50
64458;BMP280;58438;51.200;7.252;2023-10-19T06:45:54;95616.63;;;12.57
64458;BMP280;58438;51.200;7.252;2023-10-19T06:48:42;95618.94;;;12.53
64458;BMP280;58438;51.200;7.252;2023-10-19T06:51:29;95620.03;;;12.50
64458;BMP280;58438;51.200;7.252;2023-10-19T06:57:04;95620.13;;;12.65
64458;BMP280;58438;51.200;7.252;2023-10-19T07:02:43;95611.19;;;12.65
64458;BMP280;58438;51.200;7.252;2023-10-19T07:05:32;95626.28;;;12.66
64458;BMP280;58438;51.200;7.252;2023-10-19T07:11:07;95632.16;;;12.70
64458;BMP280;58438;51.200;7.252;2023-10-19T07:13:55;95627.56;;;12.72
64458;BMP280;58438;51.200;7.252;2023-10-19T07:16:42;95626.09;;;12.64
64458;BMP280;58438;51.200;7.252;2023-10-19T07:19:32;95625.38;;;12.63
64458;BMP280;58438;51.200;7.252;2023-10-19T07:22:19;95619.22;;;12.70
64458;BMP280;58438;51.200;7.252;2023-10-19T07:25:08;95625.75;;;12.67
64458;BMP280;58438;51.200;7.252;2023-10-19T07:33:32;95636.91;;;12.77
64458;BMP280;58438;51.200;7.252;2023-10-19T07:39:13;95652.59;;;12.84
64458;BMP280;58438;51.200;7.252;2023-10-19T07:42:05;95649.34;;;12.93
64458;BMP280;58438;51.200;7.252;2023-10-19T07:44:53;95636.06;;;12.89
64458;BMP280;58438;51.200;7.252;2023-10-19T07:47:41;95645.13;;;12.84
64458;BMP280;58438;51.200;7.252;2023-10-19T07:50:30;95637.69;;;12.92
64458;BMP280;58438;51.200;7.252;2023-10-19T07:53:18;95639.31;;;12.88
64458;BMP280;58438;51.200;7.252;2023-10-19T07:58:54;95638.97;;;12.99
64458;BMP280;58438;51.200;7.252;2023-10-19T08:01:42;95637.53;;;12.98
64458;BMP280;58438;51.200;7.252;2023-10-19T08:04:30;95635.91;;;13.02
64458;BMP280;58438;51.200;7.252;2023-10-19T08:10:05;95639.03;;;13.06
64458;BMP280;58438;51.200;7.252;2023-10-19T08:12:55;95640.88;;;13.11
64458;BMP280;58438;51.200;7.252;2023-10-19T08:15:44;95634.13;;;13.12
64458;BMP280;58438;51.200;7.252;2023-10-19T08:18:31;95631.59;;;13.14
64458;BMP280;58438;51.200;7.252;2023-10-19T08:24:06;95629.22;;;13.18
64458;BMP280;58438;51.200;7.252;2023-10-19T08:26:59;95625.78;;;13.25
64458;BMP280;58438;51.200;7.252;2023-10-19T08:32:35;95625.31;;;13.34
64458;BMP280;58438;51.200;7.252;2023-10-19T08:35:23;95626.19;;;13.37
64458;BMP280;58438;51.200;7.252;2023-10-19T08:38:11;95629.13;;;13.39
64458;BMP280;58438;51.200;7.252;2023-10-19T08:40:59;95627.31;;;13.41
64458;BMP280;58438;51.200;7.252;2023-10-19T08:43:48;95628.38;;;13.38
64458;BMP280;58438;51.200;7.252;2023-10-19T08:49:25;95628.94;;;13.44
64458;BMP280;58438;51.200;7.252;2023-10-19T08:55:00;95624.22;;;13.52
64458;BMP280;58438;51.200;7.252;2023-10-19T08:57:48;95618.41;;;13.55
64458;BMP280;58438;51.200;7.252;2023-10-19T09:00:45;95628.47;;;13.60
64458;BMP280;58438;51.200;7.252;2023-10-19T09:03:35;95618.94;;;13.54
64458;BMP280;58438;51.200;7.252;2023-10-19T09:06:24;95621.13;;;13.55
64458;BMP280;58438;51.200;7.252;2023-10-19T09:09:12;95628.47;;;13.60
64458;BMP280;58438;51.200;7.252;2023-10-19T09:12:03;95625.53;;;13.66
64458;BMP280;58438;51.200;7.252;2023-10-19T09:17:38;95621.34;;;13.80
64458;BMP280;58438;51.200;7.252;2023-10-19T09:20:26;95621.88;;;13.86
64458;BMP280;58438;51.200;7.252;2023-10-19T09:23:16;95630.28;;;13.88
64458;BMP280;58438;51.200;7.252;2023-10-19T09:28:51;95622.09;;;14.03
64458;BMP280;58438;51.200;7.252;2023-10-19T09:31:40;95615.31;;;14.04
64458;BMP280;58438;51.200;7.252;2023-10-19T09:37:17;95608.38;;;14.18
64458;BMP280;58438;51.200;7.252;2023-10-19T09:40:07;95607.63;;;14.17
64458;BMP280;58438;51.200;7.252;2023-10-19T09:57:03;95612.28;;;14.69
64458;BMP280;58438;51.200;7.252;2023-10-19T10:08:33;95617.94;;;15.10
64458;BMP280;58438;51.200;7.252;2023-10-19T10:14:19;95615.84;;;15.26
64458;BMP280;58438;51.200;7.252;2023-10-19T10:17:10;95619.09;;;15.32
64458;BMP280;58438;51.200;7.252;2023-10-19T10:31:20;95625.09;;;15.86
64458;BMP280;58438;51.200;7.252;2023-10-19T10:36:58;95622.44;;;15.79
64458;BMP280;58438;51.200;7.252;2023-10-19T10:39:48;95614.75;;;15.77
64458;BMP280;58438;51.200;7.252;2023-10-19T10:42:35;95618.91;;;15.86
64458;BMP280;58438;51.200;7.252;2023-10-19T10:45:28;95620.28;;;15.94
64458;BMP280;58438;51.200;7.252;2023-10-19T10:48:18;95629.34;;;16.04
64458;BMP280;58438;51.200;7.252;2023-10-19T10:53:53;95626.91;;;16.08
64458;BMP280;58438;51.200;7.252;2023-10-19T10:56:40;95635.09;;;16.16
64458;BMP280;58438;51.200;7.252;2023-10-19T10:59:29;95632.56;;;16.10
64458;BMP280;58438;51.200;7.252;2023-10-19T11:02:18;95627.16;;;16.03
64458;BMP280;58438;51.200;7.252;2023-10-19T11:05:10;95625.31;;;16.05
64458;BMP280;58438;51.200;7.252;2023-10-19T11:08:05;95622.00;;;16.07
64458;BMP280;58438;51.200;7.252;2023-10-19T11:10:53;95617.81;;;16.06
64458;BMP280;58438;51.200;7.252;2023-10-19T11:13:42;95618.31;;;16.12
64458;BMP280;58438;51.200;7.252;2023-10-19T11:16:30;95615.69;;;16.14
64458;BMP280;58438;51.200;7.252;2023-10-19T11:19:18;95612.81;;;16.12
64458;BMP280;58438;51.200;7.252;2023-10-19T11:22:10;95615.38;;;16.10
64458;BMP280;58438;51.200;7.252;2023-10-19T11:28:01;95605.22;;;16.20
64458;BMP280;58438;51.200;7.252;2023-10-19T11:30:50;95609.00;;;16.24
64458;BMP280;58438;51.200;7.252;2023-10-19T11:33:38;95599.47;;;16.25
64458;BMP280;58438;51.200;7.252;2023-10-19T11:36:25;95592.91;;;16.28
64458;BMP280;58438;51.200;7.252;2023-10-19T11:39:15;95596.44;;;16.38
64458;BMP280;58438;51.200;7.252;2023-10-19T11:44:51;95594.75;;;16.43
64458;BMP280;58438;51.200;7.252;2023-10-19T11:47:39;95577.94;;;16.39
64458;BMP280;58438;51.200;7.252;2023-10-19T11:50:27;95576.94;;;16.44
64458;BMP280;58438;51.200;7.252;2023-10-19T11:53:14;95581.81;;;16.36
64458;BMP280;58438;51.200;7.252;2023-10-19T11:56:04;95567.53;;;16.37
64458;BMP280;58438;51.200;7.252;2023-10-19T11:58:52;95566.50;;;16.33
64458;BMP280;58438;51.200;7.252;2023-10-19T12:01:39;95561.72;;;16.33
64458;BMP280;58438;51.200;7.252;2023-10-19T12:04:28;95559.44;;;16.39
64458;BMP280;58438;51.200;7.252;2023-10-19T12:07:22;95552.66;;;16.40
64458;BMP280;58438;51.200;7.252;2023-10-19T12:10:10;95554.75;;;16.32
64458;BMP280;58438;51.200;7.252;2023-10-19T12:12:59;95547.03;;;16.38
64458;BMP280;58438;51.200;7.252;2023-10-19T12:15:47;95544.81;;;16.37
64458;BMP280;58438;51.200;7.252;2023-10-19T12:18:40;95538.78;;;16.38
64458;BMP280;58438;51.200;7.252;2023-10-19T12:21:28;95540.81;;;16.38
64458;BMP280;58438;51.200;7.252;2023-10-19T12:24:18;95548.44;;;16.39
64458;BMP280;58438;51.200;7.252;2023-10-19T12:27:06;95558.81;;;16.31
64458;BMP280;58438;51.200;7.252;2023-10-19T12:29:56;95566.50;;;16.33
64458;BMP280;58438;51.200;7.252;2023-10-19T12:32:43;95563.56;;;16.31
64458;BMP280;58438;51.200;7.252;2023-10-19T12:35:35;95571.56;;;16.36
64458;BMP280;58438;51.200;7.252;2023-10-19T12:38:30;95576.72;;;16.32
64458;BMP280;58438;51.200;7.252;2023-10-19T12:41:19;95571.63;;;16.29
64458;BMP280;58438;51.200;7.252;2023-10-19T12:44:06;95566.78;;;16.37
64458;BMP280;58438;51.200;7.252;2023-10-19T12:46:57;95549.22;;;16.23
64458;BMP280;58438;51.200;7.252;2023-10-19T12:49:45;95544.69;;;16.18
64458;BMP280;58438;51.200;7.252;2023-10-19T12:52:32;95538.84;;;16.14
64458;BMP280;58438;51.200;7.252;2023-10-19T12:55:23;95542.56;;;16.09
64458;BMP280;58438;51.200;7.252;2023-10-19T12:58:13;95532.63;;;16.13
64458;BMP280;58438;51.200;7.252;2023-10-19T13:01:05;95544.28;;;16.04
64458;BMP280;58438;51.200;7.252;2023-10-19T13:03:53;95556.03;;;15.97
64458;BMP280;58438;51.200;7.252;2023-10-19T13:06:41;95551.47;;;16.00
64458;BMP280;58438;51.200;7.252;2023-10-19T13:09:28;95546.69;;;16.00
64458;BMP280;58438;51.200;7.252;2023-10-19T13:12:18;95541.44;;;15.95
64458;BMP280;58438;51.200;7.252;2023-10-19T13:15:09;95545.88;;;15.90
64458;BMP280;58438;51.200;7.252;2023-10-19T13:18:00;95544.22;;;15.87
64458;BMP280;58438;51.200;7.252;2023-10-19T13:23:36;95542.81;;;15.86
64458;BMP280;58438;51.200;7.252;2023-10-19T13:26:23;95548.28;;;15.86
64458;BMP280;58438;51.200;7.252;2023-10-19T13:29:11;95548.47;;;15.88
64458;BMP280;58438;51.200;7.252;2023-10-19T13:31:59;95543.28;;;15.92
64458;BMP280;58438;51.200;7.252;2023-10-19T13:34:46;95551.91;;;15.89
64458;BMP280;58438;51.200;7.252;2023-10-19T13:37:33;95542.63;;;15.84
64458;BMP280;58438;51.200;7.252;2023-10-19T13:40:24;95548.53;;;15.81
64458;BMP280;58438;51.200;7.252;2023-10-19T13:43:15;95545.28;;;15.75
64458;BMP280;58438;51.200;7.252;2023-10-19T13:46:03;95533.97;;;15.71
64458;BMP280;58438;51.200;7.252;2023-10-19T13:48:51;95523.00;;;15.71
64458;BMP280;58438;51.200;7.252;2023-10-19T13:51:40;95526.41;;;15.79
64458;BMP280;58438;51.200;7.252;2023-10-19T13:54:28;95520.44;;;15.73
64458;BMP280;58438;51.200;7.252;2023-10-19T13:57:17;95517.69;;;15.73
64458;BMP280;58438;51.200;7.252;2023-10-19T14:00:05;95504.13;;;15.75
64458;BMP280;58438;51.200;7.252;2023-10-19T14:02:54;95515.03;;;15.82
64458;BMP280;58438;51.200;7.252;2023-10-19T14:05:43;95513.25;;;15.77
64458;BMP280;58438;51.200;7.252;2023-10-19T14:08:33;95507.66;;;15.68
64458;BMP280;58438;51.200;7.252;2023-10-19T14:11:21;95498.88;;;15.69
64458;BMP280;58438;51.200;7.252;2023-10-19T14:14:11;95495.09;;;15.65
64458;BMP280;58438;51.200;7.252;2023-10-19T14:16:58;95495.09;;;15.65
64458;BMP280;58438;51.200;7.252;2023-10-19T14:19:46;95479.94;;;15.64
64458;BMP280;58438;51.200;7.252;2023-10-19T14:22:34;95468.56;;;15.67
64458;BMP280;58438;51.200;7.252;2023-10-19T14:25:23;95463.38;;;15.55
64458;BMP280;58438;51.200;7.252;2023-10-19T14:28:12;95460.97;;;15.59
64458;BMP280;58438;51.200;7.252;2023-10-19T14:31:01;95457.19;;;15.54
64458;BMP280;58438;51.200;7.252;2023-10-19T14:33:49;95452.00;;;15.58
64458;BMP280;58438;51.200;7.252;2023-10-19T14:39:24;95442.16;;;15.55
64458;BMP280;58438;51.200;7.252;2023-10-19T14:42:11;95433.94;;;15.55
64458;BMP280;58438;51.200;7.252;2023-10-19T14:44:58;95421.69;;;15.56
64458;BMP280;58438;51.200;7.252;2023-10-19T14:47:48;95424.28;;;15.54
64458;BMP280;58438;51.200;7.252;2023-10-19T14:50:37;95413.13;;;15.52
64458;BMP280;58438;51.200;7.252;2023-10-19T14:53:24;95413.63;;;15.58
64458;BMP280;58438;51.200;7.252;2023-10-19T14:56:12;95411.38;;;15.47
64458;BMP280;58438;51.200;7.252;2023-10-19T14:58:59;95396.50;;;15.50
64458;BMP280;58438;51.200;7.252;2023-10-19T15:01:46;95398.44;;;15.57
64458;BMP280;58438;51.200;7.252;2023-10-19T15:04:35;95393.94;;;15.52
64458;BMP280;58438;51.200;7.252;2023-10-19T15:07:24;95390.13;;;15.48
64458;BMP280;58438;51.200;7.252;2023-10-19T15:10:12;95384.25;;;15.51
64458;BMP280;58438;51.200;7.252;2023-10-19T15:12:59;95370.69;;;15.53
64458;BMP280;58438;51.200;7.252;2023-10-19T15:15:47;95383.69;;;15.53
64458;BMP280;58438;51.200;7.252;2023-10-19T15:18:34;95388.94;;;15.41
64458;BMP280;58438;51.200;7.252;2023-10-19T15:21:24;95381.75;;;15.46
64458;BMP280;58438;51.200;7.252;2023-10-19T15:24:11;95360.06;;;15.40
64458;BMP280;58438;51.200;7.252;2023-10-19T15:26:59;95369.66;;;15.49
64458;BMP280;58438;51.200;7.252;2023-10-19T15:29:46;95360.31;;;15.52
64458;BMP280;58438;51.200;7.252;2023-10-19T15:32:34;95356.44;;;15.55
64458;BMP280;58438;51.200;7.252;2023-10-19T15:35:22;95350.84;;;15.45
64458;BMP280;58438;51.200;7.252;2023-10-19T15:38:13;95340.13;;;15.57
64458;BMP280;58438;51.200;7.252;2023-10-19T15:41:01;95329.09;;;15.47
64458;BMP280;58438;51.200;7.252;2023-10-19T15:43:49;95319.81;;;15.60
64458;BMP280;58438;51.200;7.252;2023-10-19T15:46:36;95320.78;;;15.55
64458;BMP280;58438;51.200;7.252;2023-10-19T15:49:25;95333.59;;;15.52
64458;BMP280;58438;51.200;7.252;2023-10-19T15:52:13;95327.44;;;15.61
64458;BMP280;58438;51.200;7.252;2023-10-19T15:55:03;95326.19;;;15.62
64458;BMP280;58438;51.200;7.252;2023-10-19T15:57:50;95324.81;;;15.54
64458;BMP280;58438;51.200;7.252;2023-10-19T16:00:38;95325.06;;;15.65
64458;BMP280;58438;51.200;7.252;2023-10-19T16:03:25;95334.72;;;15.66
64458;BMP280;58438;51.200;7.252;2023-10-19T16:06:14;95320.09;;;15.54
64458;BMP280;58438;51.200;7.252;2023-10-19T16:09:02;95324.19;;;15.46
64458;BMP280;58438;51.200;7.252;2023-10-19T16:11:51;95310.22;;;15.51
64458;BMP280;58438;51.200;7.252;2023-10-19T16:14:39;95304.72;;;15.51
64458;BMP280;58438;51.200;7.252;2023-10-19T16:17:26;95294.41;;;15.59
64458;BMP280;58438;51.200;7.252;2023-10-19T16:20:14;95298.22;;;15.47
64458;BMP280;58438;51.200;7.252;2023-10-19T16:23:02;95301.38;;;15.43
64458;BMP280;58438;51.200;7.252;2023-10-19T16:25:56;95296.75;;;15.46
64458;BMP280;58438;51.200;7.252;2023-10-19T16:28:49;95307.19;;;15.47
64458;BMP280;58438;51.200;7.252;2023-10-19T16:34:26;95310.09;;;15.32
64458;BMP280;58438;51.200;7.252;2023-10-19T16:37:14;95296.69;;;15.36
64458;BMP280;58438;51.200;7.252;2023-10-19T16:40:01;95306.38;;;15.37
64458;BMP280;58438;51.200;7.252;2023-10-19T16:45:41;95316.78;;;15.22
64458;BMP280;58438;51.200;7.252;2023-10-19T16:48:29;95316.38;;;15.25
64458;BMP280;58438;51.200;7.252;2023-10-19T16:51:16;95315.56;;;15.32
64458;BMP280;58438;51.200;7.252;2023-10-19T16:54:04;95311.94;;;15.30
64458;BMP280;58438;51.200;7.252;2023-10-19T16:56:52;95315.97;;;15.29
64458;BMP280;58438;51.200;7.252;2023-10-19T16:59:40;95314.34;;;15.26
64458;BMP280;58438;51.200;7.252;2023-10-19T17:02:30;95320.69;;;15.28
64458;BMP280;58438;51.200;7.252;2023-10-19T17:05:18;95308.84;;;15.26
64458;BMP280;58438;51.200;7.252;2023-10-19T17:08:06;95296.63;;;15.27
64458;BMP280;58438;51.200;7.252;2023-10-19T17:19:23;95302.22;;;15.12
64458;BMP280;58438;51.200;7.252;2023-10-19T17:22:11;95294.50;;;15.01
64458;BMP280;58438;51.200;7.252;2023-10-19T17:27:45;95277.34;;;15.00
64458;BMP280;58438;51.200;7.252;2023-10-19T17:30:32;95270.56;;;15.01
64458;BMP280;58438;51.200;7.252;2023-10-19T17:33:20;95271.41;;;14.94
64458;BMP280;58438;51.200;7.252;2023-10-19T17:36:11;95265.91;;;14.94
64458;BMP280;58438;51.200;7.252;2023-10-19T17:38:59;95277.91;;;14.99
64458;BMP280;58438;51.200;7.252;2023-10-19T17:41:47;95268.78;;;14.96
64458;BMP280;58438;51.200;7.252;2023-10-19T17:44:34;95274.34;;;14.89
64458;BMP280;58438;51.200;7.252;2023-10-19T17:47:22;95284.97;;;14.85
64458;BMP280;58438;51.200;7.252;2023-10-19T17:50:10;95282.47;;;14.79
64458;BMP280;58438;51.200;7.252;2023-10-19T17:53:00;95275.66;;;14.88
64458;BMP280;58438;51.200;7.252;2023-10-19T17:55:50;95268.31;;;14.90
64458;BMP280;58438;51.200;7.252;2023-10-19T17:58:38;95267.00;;;14.91
64458;BMP280;58438;51.200;7.252;2023-10-19T18:01:26;95272.19;;;14.87
64458;BMP280;58438;51.200;7.252;2023-10-19T18:04:15;95276.03;;;14.84
64458;BMP280;58438;51.200;7.252;2023-10-19T18:07:03;95282.00;;;14.90
64458;BMP280;58438;51.200;7.252;2023-10-19T18:09:53;95287.06;;;14.77
64458;BMP280;58438;51.200;7.252;2023-10-19T18:12:41;95280.19;;;14.68
64458;BMP280;58438;51.200;7.252;2023-10-19T18:21:08;95250.06;;;14.68
64458;BMP280;58438;51.200;7.252;2023-10-19T18:23:57;95259.56;;;14.67
64458;BMP280;58438;51.200;7.252;2023-10-19T18:26:51;95256.53;;;14.63
64458;BMP280;58438;51.200;7.252;2023-10-19T18:29:39;95252.16;;;14.61
64458;BMP280;58438;51.200;7.252;2023-10-19T18:32:27;95248.13;;;14.61
64458;BMP280;58438;51.200;7.252;2023-10-19T18:35:15;95239.22;;;14.61
64458;BMP280;58438;51.200;7.252;2023-10-19T18:38:06;95237.41;;;14.56
64458;BMP280;58438;51.200;7.252;2023-10-19T18:40:55;95235.25;;;14.55
64458;BMP280;58438;51.200;7.252;2023-10-19T18:43:44;95250.59;;;14.50
64458;BMP280;58438;51.200;7.252;2023-10-19T18:46:32;95252.66;;;14.50
64458;BMP280;58438;51.200;7.252;2023-10-19T18:49:20;95255.25;;;14.40
64458;BMP280;58438;51.200;7.252;2023-10-19T18:54:58;95244.97;;;14.48
64458;BMP280;58438;51.200;7.252;2023-10-19T18:57:46;95237.13;;;14.45
64458;BMP280;58438;51.200;7.252;2023-10-19T19:00:35;95224.78;;;14.44
64458;BMP280;58438;51.200;7.252;2023-10-19T19:03:22;95211.22;;;14.46
64458;BMP280;58438;51.200;7.252;2023-10-19T19:06:10;95214.47;;;14.52
64458;BMP280;58438;51.200;7.252;2023-10-19T19:08:58;95207.59;;;14.43
64458;BMP280;58438;51.200;7.252;2023-10-19T19:11:45;95211.47;;;14.40
64458;BMP280;58438;51.200;7.252;2023-10-19T19:14:32;95207.97;;;14.40
64458;BMP280;58438;51.200;7.252;2023-10-19T19:17:21;95221.47;;;14.21
64458;BMP280;58438;51.200;7.252;2023-10-19T19:20:10;95223.59;;;14.30